Time;durP1;ratioP1;P1;durP2;ratioP2;P2;SDS_P1;SDS_P2;PMS_P1;PMS_P2;Temp;Humidity;BMP_temperature;BMP_pressure;BME280_temperature;BME280_humidity;BME280_pressure;Samples;Min_cycle;Max_cycle;Signal;HPM_P1;HPM_P2
2023/11/26 00:01:52;;;;;;;4.70;2.20;;;;;;;0.67;93.90;99729.14;111003;1206;98942;-66
2023/11/26 00:04:19;;;;;;;5.80;2.40;;;;;;;0.68;94.01;99733.51;110926;1222;139401;-66
2023/11/26 00:06:45;;;;;;;6.50;2.50;;;;;;;0.68;93.70;99739.48;110934;1206;98057;-66
2023/11/26 00:09:11;;;;;;;6.30;3.10;;;;;;;0.65;93.72;99739.18;111123;1210;99011;-66
2023/11/26 00:11:37;;;;;;;7.50;3.00;;;;;;;0.65;93.72;99744.10;110962;1209;139221;-66
2023/11/26 00:14:03;;;;;;;5.80;2.80;;;;;;;0.58;93.56;99747.91;111002;1206;99123;-63
2023/11/26 00:16:35;;;;;;;5.10;2.70;;;;;;;0.54;93.52;99754.14;110974;1206;139146;-63
2023/11/26 00:19:00;;;;;;;6.30;2.90;;;;;;;0.55;93.65;99762.92;111049;1209;113574;-67
2023/11/26 00:21:26;;;;;;;10.20;3.60;;;;;;;0.55;93.57;99766.25;110919;1206;140523;-63
2023/11/26 00:23:51;;;;;;;9.80;3.00;;;;;;;0.54;93.66;99764.70;111069;1209;99053;-65
2023/11/26 00:26:17;;;;;;;7.00;2.70;;;;;;;0.55;93.72;99771.70;111084;1206;99051;-66
2023/11/26 00:28:42;;;;;;;5.40;3.20;;;;;;;0.56;93.70;99772.40;111044;1206;138137;-65
2023/11/26 00:31:08;;;;;;;8.30;3.40;;;;;;;0.58;93.76;99772.52;111035;1210;107911;-65
2023/11/26 00:33:33;;;;;;;8.90;3.60;;;;;;;0.56;93.60;99774.15;110901;1206;139334;-65
2023/11/26 00:35:58;;;;;;;6.60;3.30;;;;;;;0.56;93.71;99775.56;111074;1209;99036;-65
2023/11/26 00:38:24;;;;;;;6.90;3.40;;;;;;;0.55;93.61;99779.79;111046;1206;99004;-65
2023/11/26 00:40:49;;;;;;;6.30;3.50;;;;;;;0.49;93.41;99784.99;110959;1206;139279;-66
2023/11/26 00:43:14;;;;;;;8.80;3.90;;;;;;;0.49;93.61;99791.14;111062;1207;99040;-67
2023/11/26 00:45:40;;;;;;;9.20;3.50;;;;;;;0.48;93.63;99798.17;110975;1206;138291;-67
2023/11/26 00:48:05;;;;;;;9.30;3.30;;;;;;;0.44;93.41;99798.24;111095;1209;99296;-65
2023/11/26 00:50:31;;;;;;;8.30;3.50;;;;;;;0.43;93.55;99797.92;111014;1209;98961;-64
2023/11/26 00:52:56;;;;;;;8.60;3.50;;;;;;;0.42;93.47;99807.08;110966;1209;138552;-65
2023/11/26 00:55:21;;;;;;;8.70;3.40;;;;;;;0.38;93.53;99807.84;111075;1205;98972;-65
2023/11/26 00:57:46;;;;;;;6.40;3.10;;;;;;;0.39;93.60;99814.31;110859;1206;140143;-65
2023/11/26 01:00:12;;;;;;;6.60;2.90;;;;;;;0.42;93.67;99817.61;111130;1210;99006;-64
2023/11/26 01:02:39;;;;;;;9.40;3.80;;;;;;;0.37;93.30;99821.73;111009;1206;99401;-65
2023/11/26 01:05:05;;;;;;;5.50;2.70;;;;;;;0.35;93.51;99818.24;110869;1211;138201;-65
2023/11/26 01:07:30;;;;;;;6.70;2.70;;;;;;;0.36;93.50;99818.77;111111;1206;99020;-65
2023/11/26 01:09:59;;;;;;;11.00;3.30;;;;;;;0.36;93.50;99819.81;110911;1210;139030;-68
2023/11/26 01:12:25;;;;;;;6.90;3.00;;;;;;;0.34;93.46;99822.14;111088;1206;114097;-65
2023/11/26 01:14:51;;;;;;;6.20;2.90;;;;;;;0.34;93.53;99823.70;111017;1210;99819;-65
2023/11/26 01:17:17;;;;;;;6.40;2.80;;;;;;;0.32;93.31;99823.55;111119;1206;138227;-65
2023/11/26 01:19:43;;;;;;;5.80;2.60;;;;;;;0.26;93.26;99824.02;111235;1222;97829;-65
2023/11/26 01:22:08;;;;;;;6.00;2.70;;;;;;;0.16;93.07;99821.52;110893;1211;138998;-65
2023/11/26 01:24:33;;;;;;;10.00;3.20;;;;;;;0.16;93.33;99823.27;111092;1206;98934;-65
2023/11/26 01:26:59;;;;;;;6.40;2.60;;;;;;;0.21;93.45;99827.07;110956;1210;98943;-64
2023/11/26 01:29:24;;;;;;;5.40;2.50;;;;;;;0.22;93.44;99826.88;110949;1209;138336;-64
2023/11/26 01:31:50;;;;;;;8.90;2.40;;;;;;;0.22;93.45;99830.39;111108;1209;99017;-64
2023/11/26 01:34:15;;;;;;;8.70;3.00;;;;;;;0.21;93.39;99831.81;110952;1209;139028;-65
2023/11/26 01:36:41;;;;;;;7.40;2.80;;;;;;;0.20;93.53;99830.77;111117;1206;99773;-65
2023/11/26 01:39:07;;;;;;;4.00;2.60;;;;;;;0.21;93.51;99834.62;111025;1205;113134;-65
2023/11/26 01:41:33;;;;;;;6.50;2.80;;;;;;;0.20;93.41;99831.46;111036;1206;139483;-65
2023/11/26 01:44:00;;;;;;;5.80;2.20;;;;;;;0.17;93.29;99834.33;111076;1206;99074;-65
2023/11/26 01:46:27;;;;;;;5.70;3.10;;;;;;;0.13;93.09;99835.09;110955;1206;138375;-65
2023/11/26 01:48:53;;;;;;;4.50;2.70;;;;;;;0.08;93.11;99837.61;111084;1206;113460;-65
2023/11/26 01:51:20;;;;;;;6.30;2.90;;;;;;;0.05;93.19;99840.11;111157;1206;99058;-65
2023/11/26 01:53:49;;;;;;;3.20;2.30;;;;;;;0.03;93.24;99839.45;110908;1208;139779;-65
2023/11/26 01:56:16;;;;;;;6.30;3.30;;;;;;;0.02;93.20;99845.45;111043;1206;98980;-65
2023/11/26 01:58:42;;;;;;;5.80;2.40;;;;;;;0.01;93.29;99844.21;110935;1206;139401;-65
2023/11/26 02:01:10;;;;;;;5.00;2.80;;;;;;;-0.01;93.18;99846.87;111062;1209;98961;-65
2023/11/26 02:03:37;;;;;;;5.30;2.90;;;;;;;-0.05;93.18;99848.35;111033;1209;139453;-66
2023/11/26 02:06:03;;;;;;;4.10;2.70;;;;;;;-0.08;93.10;99847.70;111047;1212;99009;-65
2023/11/26 02:08:31;;;;;;;5.90;2.90;;;;;;;-0.10;93.21;99850.35;111146;1206;99040;-65
2023/11/26 02:10:57;;;;;;;4.80;2.90;;;;;;;-0.08;93.27;99849.98;110872;1209;138794;-65
2023/11/26 02:13:23;;;;;;;7.20;3.60;;;;;;;-0.08;93.24;99853.49;111007;1208;99028;-66
2023/11/26 02:15:48;;;;;;;5.50;2.80;;;;;;;-0.06;93.32;99856.64;110918;1210;140927;-65
2023/11/26 02:18:14;;;;;;;6.40;2.80;;;;;;;-0.07;93.26;99857.52;111013;1222;99086;-65
2023/11/26 02:20:39;;;;;;;3.70;2.60;;;;;;;-0.08;93.15;99858.23;111045;1209;99069;-65
2023/11/26 02:23:07;;;;;;;8.90;2.90;;;;;;;-0.11;93.16;99856.88;110971;1206;139057;-65
2023/11/26 02:25:33;;;;;;;9.60;3.20;;;;;;;-0.15;93.03;99861.84;111079;1212;99866;-64
2023/11/26 02:27:59;;;;;;;4.40;2.30;;;;;;;-0.19;93.06;99867.16;110928;1205;139290;-65
2023/11/26 02:30:24;;;;;;;5.50;3.10;;;;;;;-0.26;92.83;99866.72;111115;1222;98991;-64
2023/11/26 02:32:51;;;;;;;6.80;2.70;;;;;;;-0.32;93.09;99872.92;111019;1206;108025;-65
2023/11/26 02:35:18;;;;;;;6.60;3.20;;;;;;;-0.31;93.12;99871.52;110977;1209;138620;-65
2023/11/26 02:37:45;;;;;;;4.70;2.40;;;;;;;-0.34;93.11;99874.70;111041;1206;99433;-65
2023/11/26 02:40:10;;;;;;;5.10;2.50;;;;;;;-0.36;93.13;99879.99;110990;1209;139076;-64
2023/11/26 02:42:37;;;;;;;7.20;3.20;;;;;;;-0.39;92.98;99881.09;111101;1210;98944;-65
2023/11/26 02:45:03;;;;;;;9.10;3.30;;;;;;;-0.43;92.83;99878.48;111057;1205;98961;-65
2023/11/26 02:47:29;;;;;;;5.60;2.90;;;;;;;-0.46;92.84;99879.92;111046;1209;138588;-65
2023/11/26 02:49:55;;;;;;;8.20;2.60;;;;;;;-0.49;92.86;99883.82;111034;1206;98930;-64
2023/11/26 02:52:20;;;;;;;5.40;2.50;;;;;;;-0.48;93.01;99888.55;110973;1209;139148;-65
2023/11/26 02:54:46;;;;;;;11.20;3.40;;;;;;;-0.47;93.04;99889.59;110939;1211;99026;-64
2023/11/26 02:57:11;;;;;;;6.30;3.00;;;;;;;-0.46;93.17;99895.91;111240;1209;98970;-65
2023/11/26 02:59:37;;;;;;;4.00;2.40;;;;;;;-0.46;93.19;99898.71;110993;1211;138237;-64
2023/11/26 03:02:02;;;;;;;4.20;2.80;;;;;;;-0.48;92.94;99896.27;110982;1206;99072;-64
2023/11/26 03:04:28;;;;;;;4.90;2.40;;;;;;;-0.50;92.94;99895.06;111019;1222;139904;-65
2023/11/26 03:06:53;;;;;;;9.00;2.80;;;;;;;-0.52;92.95;99897.90;111041;1206;99044;-64
2023/11/26 03:09:40;;;;;;;5.80;2.80;;;;;;;-0.53;93.01;99900.55;111060;1206;100280;-65
2023/11/26 03:14:53;;;;;;;7.80;2.60;;;;;;;-0.55;93.02;99903.20;111004;1209;99015;-65
2023/11/26 03:17:18;;;;;;;4.80;1.80;;;;;;;-0.62;92.85;99903.80;110952;1209;139122;-65
2023/11/26 03:19:47;;;;;;;3.80;1.90;;;;;;;-0.65;92.84;99902.07;111032;1206;99044;-65
2023/11/26 03:22:13;;;;;;;4.60;2.10;;;;;;;-0.64;92.89;99903.63;110951;1205;139476;-65
2023/11/26 03:24:38;;;;;;;2.50;2.10;;;;;;;-0.63;92.94;99903.10;111027;1206;98958;-65
2023/11/26 03:27:04;;;;;;;3.60;2.20;;;;;;;-0.66;92.86;99906.98;111039;1205;98950;-65
2023/11/26 03:29:29;;;;;;;4.40;2.20;;;;;;;-0.68;92.81;99912.09;110928;1209;140028;-65
2023/11/26 03:31:56;;;;;;;4.40;2.70;;;;;;;-0.69;92.84;99917.19;111001;1211;98945;-65
2023/11/26 03:34:23;;;;;;;6.30;2.20;;;;;;;-0.70;92.80;99921.93;110998;1209;139579;-65
2023/11/26 03:36:49;;;;;;;2.30;1.70;;;;;;;-0.72;92.83;99918.98;111036;1209;97967;-65
2023/11/26 03:39:18;;;;;;;3.70;2.30;;;;;;;-0.76;92.78;99930.41;111031;1209;99038;-65
2023/11/26 03:41:44;;;;;;;3.60;2.10;;;;;;;-0.78;92.80;99934.13;110890;1205;138821;-65
2023/11/26 03:44:09;;;;;;;6.70;2.20;;;;;;;-0.79;92.72;99938.67;110952;1205;99031;-65
2023/11/26 03:46:35;;;;;;;8.20;2.30;;;;;;;-0.78;92.75;99940.25;110986;1209;139116;-65
2023/11/26 03:49:01;;;;;;;3.20;2.10;;;;;;;-0.80;92.77;99945.53;111037;1206;111683;-65
2023/11/26 03:51:28;;;;;;;6.60;2.30;;;;;;;-0.81;92.93;99945.89;110948;1210;138904;-65
2023/11/26 03:53:53;;;;;;;5.20;2.30;;;;;;;-0.80;92.72;99948.17;110991;1211;99006;-64
2023/11/26 03:56:19;;;;;;;4.30;2.30;;;;;;;-0.82;92.75;99948.00;111103;1206;98965;-65
2023/11/26 03:58:45;;;;;;;7.20;2.60;;;;;;;-0.83;92.78;99951.16;110924;1211;138895;-64
2023/11/26 04:01:11;;;;;;;3.40;2.20;;;;;;;-0.86;92.65;99954.89;111101;1209;99599;-64
2023/11/26 04:03:38;;;;;;;5.20;2.20;;;;;;;-0.86;92.70;99961.89;110937;1206;139277;-64
2023/11/26 04:06:03;;;;;;;4.60;2.70;;;;;;;-0.87;92.79;99960.67;111064;1206;99121;-64
2023/11/26 04:08:29;;;;;;;5.80;3.00;;;;;;;-0.89;92.69;99963.84;111136;1209;99054;-64
2023/11/26 04:10:54;;;;;;;5.00;2.20;;;;;;;-0.88;92.76;99968.23;110889;1209;139016;-64
2023/11/26 04:13:22;;;;;;;6.30;2.40;;;;;;;-0.89;92.68;99968.41;110995;1206;99067;-65
2023/11/26 04:15:54;;;;;;;5.00;2.20;;;;;;;-0.90;92.71;99966.85;110891;1205;139215;-65
2023/11/26 04:18:20;;;;;;;6.10;2.20;;;;;;;-0.91;92.77;99965.80;111074;1206;112305;-65
2023/11/26 04:20:47;;;;;;;4.60;2.30;;;;;;;-0.92;92.60;99968.96;111010;1205;100457;-66
2023/11/26 04:23:14;;;;;;;4.10;2.00;;;;;;;-0.92;92.43;99972.30;110899;1209;138814;-65
2023/11/26 04:25:40;;;;;;;5.10;2.30;;;;;;;-0.94;92.60;99975.64;111103;1206;99002;-65
2023/11/26 04:28:05;;;;;;;4.20;2.10;;;;;;;-0.94;92.60;99978.27;110919;1207;140064;-65
2023/11/26 04:30:31;;;;;;;6.80;1.90;;;;;;;-0.98;92.54;99977.95;110936;1205;99321;-66
2023/11/26 04:32:57;;;;;;;5.40;2.10;;;;;;;-1.02;92.53;99976.57;111223;1211;99092;-65
2023/11/26 04:35:24;;;;;;;4.90;2.20;;;;;;;-1.04;92.47;99976.77;110900;1208;138462;-66
2023/11/26 04:37:51;;;;;;;5.00;2.00;;;;;;;-1.06;92.36;99977.30;111052;1209;99044;-65
2023/11/26 04:40:17;;;;;;;3.90;1.80;;;;;;;-1.09;92.54;99980.48;111012;1206;139509;-65
2023/11/26 04:42:43;;;;;;;6.60;2.10;;;;;;;-1.08;92.65;99985.20;111009;1211;98924;-65
2023/11/26 04:45:09;;;;;;;7.40;2.10;;;;;;;-1.08;92.63;99986.43;111115;1209;99057;-65
2023/11/26 04:47:35;;;;;;;4.30;2.60;;;;;;;-1.09;92.53;99990.48;110901;1212;139004;-65
2023/11/26 04:50:01;;;;;;;6.20;2.00;;;;;;;-1.12;92.45;99991.38;111029;1209;99054;-65
2023/11/26 04:52:27;;;;;;;6.50;2.10;;;;;;;-1.16;92.17;99994.90;110978;1211;138450;-65
2023/11/26 04:54:52;;;;;;;2.70;1.80;;;;;;;-1.19;92.29;99997.02;111040;1210;99082;-65
2023/11/26 04:57:17;;;;;;;3.90;2.40;;;;;;;-1.22;92.29;99998.44;111075;1205;98987;-66
2023/11/26 04:59:43;;;;;;;4.40;2.20;;;;;;;-1.25;92.34;100005.48;110963;1206;138368;-64
2023/11/26 05:02:10;;;;;;;4.30;1.90;;;;;;;-1.30;92.28;100009.53;111062;1208;99013;-64
2023/11/26 05:04:36;;;;;;;3.40;2.10;;;;;;;-1.33;92.48;100008.15;110919;1206;138992;-64
2023/11/26 05:07:01;;;;;;;4.90;2.20;;;;;;;-1.35;92.08;100019.73;111122;1210;100531;-64
2023/11/26 05:09:27;;;;;;;5.60;2.10;;;;;;;-1.39;92.22;100026.75;110953;1206;139276;-64
2023/11/26 05:11:52;;;;;;;2.80;1.50;;;;;;;-1.41;92.28;100025.37;111065;1211;99082;-65
2023/11/26 05:14:18;;;;;;;5.60;2.20;;;;;;;-1.42;92.51;100024.14;111108;1205;99470;-65
2023/11/26 05:16:43;;;;;;;3.50;2.20;;;;;;;-1.43;92.38;100024.32;110870;1206;140592;-64
2023/11/26 05:19:11;;;;;;;3.90;2.60;;;;;;;-1.45;92.25;100022.58;111118;1206;99601;-65
2023/11/26 05:21:37;;;;;;;5.80;2.30;;;;;;;-1.45;92.25;100023.98;110895;1209;139295;-65
2023/11/26 05:24:04;;;;;;;4.80;2.60;;;;;;;-1.46;92.43;100026.62;110997;1209;98960;-64
2023/11/26 05:26:29;;;;;;;3.90;2.30;;;;;;;-1.48;92.24;100031.70;111130;1212;99107;-64
2023/11/26 05:28:55;;;;;;;7.10;2.90;;;;;;;-1.49;92.34;100037.49;110943;1205;138706;-64
2023/11/26 05:31:21;;;;;;;5.40;2.40;;;;;;;-1.51;92.32;100040.65;111171;1206;99058;-64
2023/11/26 05:33:47;;;;;;;3.30;2.40;;;;;;;-1.55;92.17;100040.15;110911;1209;138691;-64
2023/11/26 05:36:12;;;;;;;6.00;2.50;;;;;;;-1.56;92.33;100047.69;111101;1205;98938;-64
2023/11/26 05:38:37;;;;;;;7.60;3.00;;;;;;;-1.58;92.19;100053.64;111093;1211;99044;-65
2023/11/26 05:41:03;;;;;;;5.80;2.20;;;;;;;-1.59;92.19;100058.91;110896;1208;138998;-64
2023/11/26 05:43:30;;;;;;;5.70;2.50;;;;;;;-1.59;92.33;100060.14;111087;1206;98946;-64
2023/11/26 05:45:55;;;;;;;6.30;2.50;;;;;;;-1.61;92.28;100067.84;110945;1205;142655;-64
2023/11/26 05:48:21;;;;;;;11.50;2.90;;;;;;;-1.62;92.54;100077.31;111141;1205;98967;-64
2023/11/26 05:50:46;;;;;;;5.10;2.50;;;;;;;-1.65;92.32;100078.20;111098;1205;111797;-66
2023/11/26 05:53:14;;;;;;;7.30;2.60;;;;;;;-1.67;92.20;100076.10;111019;1206;138873;-66
2023/11/26 05:55:39;;;;;;;5.10;2.60;;;;;;;-1.67;92.25;100080.13;111088;1209;98977;-67
2023/11/26 05:58:05;;;;;;;5.70;2.50;;;;;;;-1.68;92.27;100078.02;111037;1208;139824;-67
2023/11/26 06:00:30;;;;;;;5.00;2.90;;;;;;;-1.68;92.34;100076.27;111058;1205;98148;-65
2023/11/26 06:02:56;;;;;;;5.60;2.90;;;;;;;-1.69;92.41;100076.10;111150;1208;99089;-65
2023/11/26 06:05:22;;;;;;;5.90;2.70;;;;;;;-1.69;92.37;100078.55;110873;1211;139552;-65
2023/11/26 06:07:47;;;;;;;5.20;2.70;;;;;;;-1.71;92.19;100077.52;111099;1206;99113;-66
2023/11/26 06:10:12;;;;;;;5.70;2.60;;;;;;;-1.72;92.17;100078.56;110930;1205;139661;-65
2023/11/26 06:12:38;;;;;;;4.20;2.30;;;;;;;-1.72;92.20;100086.63;111107;1209;99066;-65
2023/11/26 06:15:04;;;;;;;4.70;2.60;;;;;;;-1.75;92.06;100088.91;111068;1205;99053;-65
2023/11/26 06:17:30;;;;;;;5.90;2.50;;;;;;;-1.78;92.16;100092.25;111175;1206;139731;-65
2023/11/26 06:19:55;;;;;;;7.40;2.50;;;;;;;-1.80;92.10;100089.80;111068;1205;98978;-65
2023/11/26 06:22:21;;;;;;;6.50;2.90;;;;;;;-1.81;92.03;100092.95;110964;1205;139212;-64
2023/11/26 06:24:47;;;;;;;5.90;2.70;;;;;;;-1.82;92.32;100095.76;111127;1211;99095;-65
2023/11/26 06:27:12;;;;;;;9.90;2.70;;;;;;;-1.81;92.34;100103.11;111081;1209;111551;-65
2023/11/26 06:29:38;;;;;;;4.80;2.40;;;;;;;-1.82;92.06;100105.91;110971;1205;139068;-65
2023/11/26 06:32:04;;;;;;;6.30;2.60;;;;;;;-1.84;91.97;100107.14;111059;1206;99605;-64
2023/11/26 06:34:31;;;;;;;9.30;2.80;;;;;;;-1.85;92.16;100103.81;111052;1209;139055;-64
2023/11/26 06:36:56;;;;;;;10.10;3.50;;;;;;;-1.86;92.14;100109.08;111099;1208;99629;-65
2023/11/26 06:39:24;;;;;;;7.00;2.70;;;;;;;-1.86;92.22;100112.75;111122;1205;98933;-64
2023/11/26 06:41:50;;;;;;;5.10;2.70;;;;;;;-1.87;92.12;100115.73;110907;1209;139282;-64
2023/11/26 06:44:15;;;;;;;6.10;2.50;;;;;;;-1.89;91.88;100111.17;111048;1205;97897;-65
2023/11/26 06:46:41;;;;;;;8.30;2.60;;;;;;;-1.89;91.98;100109.60;110996;1208;139756;-67
2023/11/26 06:49:06;;;;;;;6.40;3.10;;;;;;;-1.88;92.03;100107.85;110945;1209;98958;-65
2023/11/26 06:51:31;;;;;;;6.60;2.50;;;;;;;-1.90;92.04;100106.80;110954;1205;140352;-64
2023/11/26 06:53:57;;;;;;;9.60;3.50;;;;;;;-1.91;91.95;100108.55;111009;1221;111693;-65
2023/11/26 06:56:22;;;;;;;8.90;3.30;;;;;;;-1.92;91.95;100111.35;111040;1208;99033;-65
2023/11/26 06:58:49;;;;;;;11.00;3.40;;;;;;;-1.92;92.06;100114.68;110866;1211;139248;-65
2023/11/26 07:01:15;;;;;;;7.70;3.30;;;;;;;-1.93;91.91;100116.27;111009;1205;100272;-66
2023/11/26 07:03:42;;;;;;;6.20;3.00;;;;;;;-1.93;92.06;100119.23;110933;1205;139971;-65
2023/11/26 07:06:11;;;;;;;10.60;3.70;;;;;;;-1.94;92.03;100122.56;110978;1209;99066;-66
2023/11/26 07:08:38;;;;;;;4.50;2.70;;;;;;;-1.92;92.06;100119.77;112145;1205;98928;-66
2023/11/26 07:11:05;;;;;;;8.10;3.40;;;;;;;-1.93;91.94;100122.05;111463;1209;140218;-66
2023/11/26 07:13:32;;;;;;;9.50;2.90;;;;;;;-1.95;91.74;100120.99;111030;1208;98948;-66
2023/11/26 07:15:58;;;;;;;7.80;3.20;;;;;;;-1.96;92.00;100123.09;111049;1206;139356;-66
2023/11/26 07:18:24;;;;;;;10.70;3.80;;;;;;;-1.94;92.08;100126.24;111012;1208;99006;-66
2023/11/26 07:20:50;;;;;;;6.70;2.70;;;;;;;-1.92;91.90;100130.45;111003;1208;99192;-68
2023/11/26 07:23:16;;;;;;;6.50;2.70;;;;;;;-1.91;91.82;100131.32;110907;1209;139289;-66
2023/11/26 07:25:41;;;;;;;7.40;2.90;;;;;;;-1.89;91.93;100133.24;111215;1209;99075;-65
2023/11/26 07:28:08;;;;;;;7.90;2.70;;;;;;;-1.88;92.01;100132.36;110879;1206;139275;-66
2023/11/26 07:30:43;;;;;;;9.30;3.30;;;;;;;-1.88;91.96;100134.47;110986;1205;99146;-66
2023/11/26 07:33:09;;;;;;;5.20;3.10;;;;;;;-1.87;91.83;100139.02;111206;1205;98887;-67
2023/11/26 07:35:34;;;;;;;7.20;3.30;;;;;;;-1.87;91.99;100141.12;110895;1209;139233;-65
2023/11/26 07:38:04;;;;;;;8.20;2.90;;;;;;;-1.87;91.82;100143.92;110997;1209;99101;-66
2023/11/26 07:40:33;;;;;;;18.10;4.10;;;;;;;-1.84;91.97;100149.17;110897;1209;139753;-66
2023/11/26 07:43:01;;;;;;;7.90;3.60;;;;;;;-1.83;92.07;100151.27;111161;1209;99057;-67
2023/11/26 07:45:28;;;;;;;9.20;3.70;;;;;;;-1.83;91.90;100155.99;111012;1209;112159;-66
2023/11/26 07:47:54;;;;;;;7.10;3.30;;;;;;;-1.83;91.92;100155.82;110853;1205;138834;-66
2023/11/26 07:50:22;;;;;;;9.50;3.50;;;;;;;-1.82;91.93;100158.27;113306;1205;97153;-66
2023/11/26 07:52:53;;;;;;;7.70;3.30;;;;;;;-1.82;91.92;100159.32;111821;1206;138592;-66
2023/11/26 07:55:19;;;;;;;11.50;4.00;;;;;;;-1.81;92.11;100160.20;111026;1209;99057;-66
2023/11/26 07:57:45;;;;;;;11.10;3.50;;;;;;;-1.80;91.92;100164.39;110810;1206;139524;-66
2023/11/26 08:00:13;;;;;;;9.30;3.80;;;;;;;-1.82;91.99;100168.08;111060;1205;99022;-65
2023/11/26 08:02:40;;;;;;;8.50;3.40;;;;;;;-1.80;92.25;100171.92;111011;1206;99053;-65
2023/11/26 08:05:08;;;;;;;12.20;3.90;;;;;;;-1.75;91.97;100172.45;111019;1207;138747;-64
2023/11/26 08:07:36;;;;;;;8.70;3.50;;;;;;;-1.70;92.16;100172.27;111199;1208;112208;-65
2023/11/26 08:10:10;;;;;;;7.00;3.60;;;;;;;-1.64;92.09;100176.64;110956;1206;139011;-65
2023/11/26 08:12:39;;;;;;;10.40;3.50;;;;;;;-1.59;92.35;100179.43;110962;1208;106641;-65
2023/11/26 08:15:12;;;;;;;7.40;3.60;;;;;;;-1.54;92.19;100181.52;110928;1211;99035;-65
2023/11/26 08:17:39;;;;;;;5.50;3.10;;;;;;;-1.51;92.24;100188.70;110898;1205;139956;-65
2023/11/26 08:20:10;;;;;;;6.90;3.40;;;;;;;-1.48;92.26;100195.01;111069;1206;99024;-65
2023/11/26 08:22:45;;;;;;;8.30;3.80;;;;;;;-1.45;92.20;100193.08;110963;1205;139323;-66
2023/11/26 08:25:17;;;;;;;11.40;3.80;;;;;;;-1.42;92.41;100197.09;111020;1206;109059;-67
2023/11/26 08:27:48;;;;;;;11.30;3.70;;;;;;;-1.39;92.23;100200.07;113183;1205;139603;-66
2023/11/26 08:33:02;;;;;;;7.90;3.40;;;;;;;-1.32;92.20;100203.73;113275;1205;112316;-66
2023/11/26 08:35:32;;;;;;;10.80;4.10;;;;;;;-1.26;92.11;100208.45;111744;1206;139538;-66
2023/11/26 08:38:01;;;;;;;9.20;3.80;;;;;;;-1.24;92.17;100206.70;110949;1222;108130;-65
2023/11/26 08:40:26;;;;;;;10.80;3.80;;;;;;;-1.20;92.39;100207.20;110849;1221;140081;-65
2023/11/26 08:42:54;;;;;;;6.20;3.50;;;;;;;-1.19;92.13;100207.91;111017;1219;98223;-66
2023/11/26 08:45:23;;;;;;;7.90;3.60;;;;;;;-1.17;92.37;100209.83;111042;1207;99092;-66
2023/11/26 08:47:49;;;;;;;9.70;3.20;;;;;;;-1.13;92.35;100208.23;110817;1209;138453;-67
2023/11/26 08:50:16;;;;;;;8.90;3.80;;;;;;;-1.10;92.47;100207.70;111320;1205;99226;-67
2023/11/26 08:52:41;;;;;;;8.00;3.50;;;;;;;-1.07;92.36;100210.15;110940;1205;139591;-65
2023/11/26 08:55:09;;;;;;;11.50;4.00;;;;;;;-1.03;92.37;100212.59;111012;1205;98784;-66
2023/11/26 08:57:38;;;;;;;7.20;3.70;;;;;;;-1.01;92.35;100218.89;111018;1205;99267;-64
2023/11/26 09:00:09;;;;;;;9.50;3.50;;;;;;;-0.99;92.24;100225.73;110949;1211;108737;-67
2023/11/26 09:02:40;;;;;;;7.90;4.30;;;;;;;-0.96;92.26;100226.08;111282;1210;99018;-68
2023/11/26 09:05:08;;;;;;;8.40;3.60;;;;;;;-0.93;92.51;100228.34;111054;1206;138869;-67
2023/11/26 09:07:41;;;;;;;11.60;3.80;;;;;;;-0.92;92.33;100230.98;111197;1211;112453;-66
2023/11/26 09:10:08;;;;;;;10.80;2.80;;;;;;;-0.87;92.33;100230.95;111091;1205;139196;-64
2023/11/26 09:12:33;;;;;;;7.70;3.30;;;;;;;-0.86;92.33;100231.30;111169;1209;99093;-66
2023/11/26 09:14:59;;;;;;;11.60;4.30;;;;;;;-0.85;92.24;100237.42;111117;1206;97726;-66
2023/11/26 09:17:25;;;;;;;12.20;4.90;;;;;;;-0.83;92.41;100240.58;110919;1211;139521;-66
2023/11/26 09:19:51;;;;;;;13.30;4.60;;;;;;;-0.81;92.42;100242.16;111081;1205;98962;-69
2023/11/26 09:22:16;;;;;;;6.30;3.10;;;;;;;-0.81;92.39;100240.40;111155;1206;139564;-67
2023/11/26 09:24:43;;;;;;;8.10;3.30;;;;;;;-0.81;92.23;100244.61;111068;1209;99156;-66
2023/11/26 09:27:09;;;;;;;7.70;3.50;;;;;;;-0.81;92.30;100247.59;110997;1210;99329;-66
2023/11/26 09:29:34;;;;;;;10.60;3.90;;;;;;;-0.79;92.51;100249.52;111093;1210;138943;-67
2023/11/26 09:31:59;;;;;;;11.70;4.20;;;;;;;-0.75;92.35;100249.67;110964;1206;98961;-66
2023/11/26 09:34:25;;;;;;;10.50;3.60;;;;;;;-0.74;92.32;100245.27;110771;1211;142385;-65
2023/11/26 09:36:52;;;;;;;11.10;3.90;;;;;;;-0.71;92.51;100240.19;111016;1205;97838;-66
2023/11/26 09:39:19;;;;;;;11.70;3.70;;;;;;;-0.67;92.47;100241.56;111252;1206;107493;-66
2023/11/26 09:41:44;;;;;;;8.80;3.10;;;;;;;-0.65;92.39;100237.34;111561;1205;138727;-66
2023/11/26 09:44:10;;;;;;;8.40;3.50;;;;;;;-0.65;92.37;100232.61;111291;1209;99456;-66
2023/11/26 09:46:36;;;;;;;9.80;4.10;;;;;;;-0.65;92.36;100239.46;111184;1211;138470;-66
2023/11/26 09:49:05;;;;;;;10.70;4.10;;;;;;;-0.66;92.46;100240.52;111247;1205;99001;-65
2023/11/26 09:51:32;;;;;;;7.70;3.20;;;;;;;-0.67;92.31;100238.94;111093;1205;99099;-65
2023/11/26 09:53:58;;;;;;;9.30;3.50;;;;;;;-0.69;92.26;100237.38;111125;1206;138465;-65
2023/11/26 09:56:25;;;;;;;13.30;3.90;;;;;;;-0.69;92.35;100240.01;111050;1205;99879;-66
2023/11/26 09:58:50;;;;;;;11.10;3.90;;;;;;;-0.71;92.26;100241.94;110997;1209;138645;-65
2023/11/26 10:01:16;;;;;;;8.60;3.70;;;;;;;-0.75;92.13;100238.44;111088;1205;98906;-65
2023/11/26 10:03:58;;;;;;;8.30;3.70;;;;;;;-0.77;92.06;100235.64;110978;1211;139590;-65
2023/11/26 10:06:28;;;;;;;11.10;4.10;;;;;;;-0.78;92.14;100230.73;111223;1205;111832;-67
2023/11/26 10:08:54;;;;;;;11.60;4.30;;;;;;;-0.78;92.39;100230.21;111332;1206;99333;-67
2023/11/26 10:11:21;;;;;;;11.60;5.30;;;;;;;-0.78;92.07;100230.21;111047;1205;139628;-68
2023/11/26 10:13:48;;;;;;;9.00;3.80;;;;;;;-0.77;92.33;100229.86;111180;1206;99038;-67
2023/11/26 10:16:29;;;;;;;9.00;3.90;;;;;;;-0.78;92.29;100229.86;111134;1205;139679;-67
2023/11/26 10:18:54;;;;;;;11.80;3.90;;;;;;;-0.78;92.11;100228.45;111245;1205;111535;-67
2023/11/26 10:21:20;;;;;;;6.90;3.40;;;;;;;-0.79;92.12;100230.39;111270;1206;99340;-68
2023/11/26 10:23:46;;;;;;;9.40;2.90;;;;;;;-0.78;92.07;100232.14;111172;1205;139564;-67
2023/11/26 10:26:28;;;;;;;5.50;2.50;;;;;;;-0.80;91.97;100234.25;111257;1206;99044;-68
2023/11/26 10:29:01;;;;;;;8.90;3.40;;;;;;;-0.81;92.15;100231.27;111157;1205;138850;-67
2023/11/26 10:31:27;;;;;;;7.00;2.90;;;;;;;-0.80;92.09;100237.06;111258;1209;99673;-73
2023/11/26 10:34:07;;;;;;;6.00;2.90;;;;;;;-0.80;92.06;100237.94;111141;1206;139368;-67
2023/11/26 10:36:33;;;;;;;5.20;2.40;;;;;;;-0.80;92.04;100232.67;111299;1206;98926;-68
2023/11/26 10:39:04;;;;;;;8.10;2.20;;;;;;;-0.80;92.06;100233.38;111285;1209;99056;-67
2023/11/26 10:41:34;;;;;;;7.30;2.30;;;;;;;-0.79;92.04;100232.85;111216;1205;139009;-67
2023/11/26 10:43:59;;;;;;;5.10;2.10;;;;;;;-0.79;91.96;100231.44;111353;1206;99193;-67
2023/11/26 10:46:25;;;;;;;3.90;1.90;;;;;;;-0.80;91.94;100231.79;111203;1205;139245;-67
2023/11/26 10:49:07;;;;;;;4.30;2.60;;;;;;;-0.80;92.02;100229.69;111292;1205;99675;-67
2023/11/26 10:51:38;;;;;;;4.90;2.10;;;;;;;-0.79;91.80;100233.73;111288;1205;112586;-67
2023/11/26 10:54:09;;;;;;;6.00;2.80;;;;;;;-0.79;92.01;100227.41;111210;1205;141052;-67
2023/11/26 10:56:41;;;;;;;6.10;2.50;;;;;;;-0.78;91.89;100228.64;111342;1209;106875;-67
2023/11/26 10:59:17;;;;;;;5.60;3.40;;;;;;;-0.77;92.00;100231.96;111038;1211;137900;-67
2023/11/26 11:01:43;;;;;;;6.90;3.00;;;;;;;-0.78;92.00;100230.91;111246;1205;99031;-67
2023/11/26 11:04:14;;;;;;;7.70;2.30;;;;;;;-0.77;92.00;100230.56;111139;1209;139578;-67
2023/11/26 11:06:40;;;;;;;8.90;3.20;;;;;;;-0.76;91.98;100233.36;111361;1206;100230;-67
2023/11/26 11:09:12;;;;;;;9.40;3.10;;;;;;;-0.77;91.88;100231.79;111164;1210;99023;-67
2023/11/26 11:12:00;;;;;;;5.00;2.80;;;;;;;-0.76;92.03;100233.89;111124;1210;138601;-67
2023/11/26 11:14:26;;;;;;;4.50;2.20;;;;;;;-0.75;91.81;100233.19;111262;1208;98941;-67
2023/11/26 11:16:51;;;;;;;6.50;2.70;;;;;;;-0.76;91.85;100231.25;111113;1206;139014;-67
2023/11/26 11:19:50;;;;;;;7.30;3.20;;;;;;;-0.75;91.78;100223.19;111313;1211;98942;-67
2023/11/26 11:22:16;;;;;;;6.70;3.20;;;;;;;-0.74;91.82;100222.12;111123;1205;139227;-67